Terminal Aerodrome Forecast
Issued by NWS Cleveland, OH

Home | Current Version | Previous Version | Graphics & Text | Print | Product List | Glossary On
Versions: 1 2 3 4 5 6 7 8 9 10 11 12 13 14 15 16
000
FTUS41 KCLE 162121 AAA
TAFYNG
TAF AMD
KYNG 162121Z 1621/1718 VRB03KT P6SM VCSH BKN035 OVC050
      TEMPO 1621/1623 4SM -RA
     FM162300 12005KT 5SM BR VCSH SCT012 OVC025
     FM170300 12007KT 2SM -RA BR OVC008=

USA.gov is the U.S. government's official web portal to all federal, state and local government web resources and services.